• Join FlightAware (Why Join?)
  • Login
  • US Flag 
08:02AM EDT


 

Airport Tracker/Info


-or-


 

Live Flight TrackerFlight Track Log ✈ SKW6486 ✈ 16-Jul-2013 ✈ KDEN - KCPR

Flight Track Log - Related Links

Times and Time Zones

All times are in EDT time to prevent confusion due to time zone crossing. See the SKW6486 flight status page for this flight to view local times or setup timezone preferences in your user account.

Time Position Orientation Groundspeed Altitude Reporting Facility
EDT Latitude Longitude Course Direction KTS MPH feet Rate Location/Type
07:01PM 39.8833 -104.6167 343° North 146 168 6,600  Level Denver TRACON
07:02PM 39.9000 -104.5500 72° East 191 220 8,000 1,440 Climbing Denver TRACON
07:03PM 39.9667 -104.5667 349° North 227 261 9,500 1,500 Climbing Denver TRACON
07:04PM 40.0167 -104.6000 333° Northwest 218 251 11,000 1,380 Climbing Denver TRACON
07:05PM 40.0547 -104.7618 343° North  Level FlightAware Approximate
07:05PM 40.0622 -104.6228 339° North 214 246 12,400  Level Denver Center
07:06PM 40.1313 -104.7925 343° North  Level FlightAware Approximate
07:06PM 40.1275 -104.6633 335° Northwest 212 244 13,800  Level Denver Center
07:07PM 40.1850 -104.7044 331° Northwest 218 251 15,100 1,140 Climbing Denver Center
07:08PM 40.2408 -104.7447 331° Northwest 229 264 16,200 1,080 Climbing Denver Center
07:09PM 40.2969 -104.7806 334° Northwest 225 259 17,400 780 Climbing Denver Center
07:10PM 40.3567 -104.8189 334° Northwest 224 258 18,100 780 Climbing Denver Center
07:11PM 40.4247 -104.8633 334° Northwest 223 257 19,300 540 Climbing Denver Center
07:12PM 40.4869 -104.8983 337° Northwest 244 281 19,300 480 Level Denver Center
07:13PM 40.5550 -104.9439 333° Northwest 252 290 20,400 900 Climbing Denver Center
07:14PM 40.6194 -104.9789 338° Northwest 250 288 21,200 780 Climbing Denver Center
07:15PM 40.6828 -105.0228 332° Northwest 256 295 22,000 480 Climbing Denver Center
07:17PM 40.7522 -105.0708 332° Northwest 256 295 22,400 540 Climbing Denver Center
07:18PM 40.8306 -105.1236 333° Northwest 264 304 23,300 720 Climbing Denver Center
07:19PM 40.8958 -105.1667 334° Northwest 264 304 24,000 660 Climbing Denver Center
07:20PM 40.9597 -105.2067 335° Northwest 255 293 24,700 540 Climbing Denver Center
07:21PM 41.0147 -105.2422 334° Northwest 252 290 25,200 480 Climbing Denver Center
07:22PM 41.0972 -105.2933 335° Northwest 255 293 25,700 360 Climbing Denver Center
07:23PM 41.1619 -105.3358 334° Northwest 264 304 26,000 120 Climbing Denver Center
07:24PM 41.2372 -105.3808 336° Northwest 266 306 26,000  Level Denver Center
07:25PM 41.3008 -105.4217 334° Northwest 266 306 26,000  Level Denver Center
07:26PM 41.3744 -105.4703 334° Northwest 265 305 26,000  Level Denver Center
07:27PM 41.4381 -105.5117 334° Northwest 265 305 26,000  Level Denver Center
07:28PM 41.5203 -105.5650 334° Northwest 259 298 26,000  Level Denver Center
07:29PM 41.5825 -105.6056 334° Northwest 259 298 26,000  Level Denver Center
07:30PM 41.6547 -105.6522 334° Northwest 258 297 26,000  Level Denver Center
07:31PM 41.7169 -105.6922 334° Northwest 258 297 26,000  Level Denver Center
07:32PM 41.7900 -105.7397 334° Northwest 260 299 26,000  Level Denver Center
07:33PM 41.8531 -105.7792 335° Northwest 260 299 26,000  Level Denver Center
07:34PM 41.9158 -105.8200 334° Northwest 261 300 26,000  Level Denver Center
07:35PM 41.9881 -105.8675 334° Northwest 261 300 26,000 -540 Level Denver Center
07:36PM 42.0533 -105.9119 333° Northwest 267 307 24,900 -1,500 Descending Denver Center
07:38PM 42.1361 -105.9647 335° Northwest 285 328 22,900 -1,740 Descending Denver Center
07:39PM 42.1961 -106.0044 334° Northwest 294 338 21,400 -1,800 Descending Denver Center
07:40PM 42.2783 -106.0581 334° Northwest 264 304 19,300 -1,800 Descending Denver Center
07:41PM 42.3369 -106.0975 334° Northwest 251 289 17,700 -1,560 Descending Denver Center
07:42PM 42.4025 -106.1394 335° Northwest 237 273 16,100 -1,500 Descending Denver Center
07:43PM 42.4583 -106.1764 334° Northwest 234 269 14,600 -1,560 Descending Denver Center
07:44PM 42.5186 -106.2178 333° Northwest 227 261 12,900 -1,260 Descending Denver Center
07:45PM 42.5722 -106.2556 333° Northwest 224 258 12,000 -1,020 Descending Denver Center
07:46PM 42.6372 -106.3117 328° Northwest 246 283 10,900 -840 Descending Denver Center
07:47PM 42.6844 -106.3661 320° Northwest 266 306 10,300 -660 Descending Denver Center
07:48PM 42.7517 -106.4281 326° Northwest 265 305 9,600 -900 Descending Denver Center
07:49PM 42.8172 -106.4828 329° Northwest 256 295 8,500 -1,080 Descending Denver Center